createdAt,value
2022-09-25T00:04:23.918Z,85.55
2022-09-25T00:09:26.771Z,85.98
2022-09-25T00:14:31.013Z,85.95
2022-09-25T00:19:51.890Z,85.97
2022-09-25T00:24:54.983Z,85.90
2022-09-25T00:30:00.286Z,86.40
2022-09-25T00:35:03.349Z,86.43
2022-09-25T00:40:07.344Z,86.00
2022-09-25T00:45:17.243Z,86.13
2022-09-25T00:50:30.046Z,86.25
2022-09-25T00:55:33.924Z,86.28
2022-09-25T01:00:38.325Z,85.90
2022-09-25T01:05:45.256Z,86.19
2022-09-25T01:10:48.169Z,85.87
2022-09-25T01:16:00.358Z,86.19
2022-09-25T01:21:17.416Z,86.37
2022-09-25T01:26:37.894Z,86.50
2022-09-25T01:31:47.609Z,86.26
2022-09-25T01:36:58.758Z,86.37
2022-09-25T01:42:07.716Z,86.62
2022-09-25T01:47:18.658Z,86.61
2022-09-25T01:52:27.002Z,86.80
2022-09-25T01:57:37.585Z,86.99
2022-09-25T02:02:48.223Z,87.04
2022-09-25T02:07:56.783Z,86.99
2022-09-25T02:13:06.748Z,87.22
2022-09-25T02:18:33.031Z,86.88
2022-09-25T02:23:45.241Z,86.84
2022-09-25T02:28:48.792Z,86.60
2022-09-25T02:33:53.277Z,86.39
2022-09-25T02:38:57.201Z,86.48
2022-09-25T02:44:18.121Z,86.59
2022-09-25T02:49:30.479Z,87.47
2022-09-25T02:54:38.736Z,86.88
2022-09-25T02:59:46.175Z,86.60
2022-09-25T03:04:52.388Z,86.47
2022-09-25T03:09:59.016Z,86.22
2022-09-25T03:15:01.926Z,86.57
2022-09-25T03:20:07.058Z,86.82
2022-09-25T03:25:10.079Z,86.55
2022-09-25T03:30:14.190Z,86.92
2022-09-25T03:35:18.366Z,86.84
2022-09-25T03:40:21.451Z,86.68
2022-09-25T03:45:24.830Z,86.95
2022-09-25T03:50:28.957Z,86.06
2022-09-25T03:55:31.862Z,86.21
2022-09-25T04:00:34.695Z,86.33
2022-09-25T04:05:39.504Z,85.99
2022-09-25T04:10:42.411Z,85.54
2022-09-25T04:15:45.225Z,85.25
2022-09-25T04:20:49.392Z,85.40
2022-09-25T04:25:52.258Z,85.46
2022-09-25T04:30:55.144Z,85.38
2022-09-25T04:35:59.263Z,85.40
2022-09-25T04:41:02.560Z,85.69
2022-09-25T04:46:08.228Z,85.90
2022-09-25T04:51:12.544Z,85.31
2022-09-25T04:56:16.660Z,85.19
2022-09-25T05:01:21.591Z,85.09
2022-09-25T05:06:26.970Z,85.33
2022-09-25T05:11:29.863Z,84.85
2022-09-25T05:16:32.813Z,84.96
2022-09-25T05:21:37.061Z,84.77
2022-09-25T05:26:40.808Z,84.36
2022-09-25T05:31:46.733Z,84.22
2022-09-25T05:36:51.618Z,84.79
2022-09-25T05:41:54.569Z,84.36
2022-09-25T05:46:57.397Z,84.68
2022-09-25T05:52:01.797Z,84.31
2022-09-25T05:57:04.797Z,84.55
2022-09-25T06:02:07.694Z,85.01
2022-09-25T06:07:11.876Z,84.48
2022-09-25T06:12:14.643Z,84.56
2022-09-25T06:17:17.265Z,83.90
2022-09-25T06:22:21.478Z,83.26
2022-09-25T06:27:24.360Z,82.92
2022-09-25T06:32:27.408Z,83.03
2022-09-25T06:37:31.598Z,82.63
2022-09-25T06:42:35.223Z,82.64
2022-09-25T06:53:17.687Z,82.15
2022-09-25T06:58:22.262Z,81.20
2022-09-25T07:03:42.686Z,81.12
2022-09-25T07:08:48.097Z,81.30
2022-09-25T07:13:52.252Z,79.37
2022-09-25T07:18:55.586Z,80.13
2022-09-25T07:23:59.965Z,79.86
2022-09-25T07:29:04.742Z,79.75
2022-09-25T07:34:10.040Z,78.81
2022-09-25T07:39:18.392Z,72.84
2022-09-25T07:44:29.176Z,73.04
2022-09-25T07:49:32.937Z,75.56
2022-09-25T07:54:37.765Z,77.55
2022-09-25T07:59:40.524Z,75.71
2022-09-25T08:04:43.317Z,75.15
2022-09-25T08:09:47.459Z,74.90
2022-09-25T08:14:50.219Z,73.59
2022-09-25T08:19:53.122Z,72.27
2022-09-25T08:24:57.296Z,69.44
2022-09-25T08:30:00.478Z,71.00
2022-09-25T08:35:03.615Z,71.35
2022-09-25T08:40:14.086Z,74.19
2022-09-25T08:45:44.694Z,71.63
2022-09-25T08:50:48.159Z,73.82
2022-09-25T08:56:10.327Z,67.23
2022-09-25T09:01:15.958Z,65.50
2022-09-25T09:06:20.630Z,66.39
2022-09-25T09:11:32.127Z,63.26
2022-09-25T09:16:43.203Z,61.06
2022-09-25T09:22:10.497Z,62.93
2022-09-25T09:27:39.736Z,64.66
2022-09-25T09:33:27.998Z,64.21
2022-09-25T09:38:52.700Z,62.41
2022-09-25T09:44:22.219Z,63.58
2022-09-25T09:49:47.245Z,62.13
2022-09-25T09:55:03.368Z,57.82
2022-09-25T10:00:36.870Z,56.81
2022-09-25T10:05:54.921Z,54.63
2022-09-25T10:11:23.022Z,56.17
2022-09-25T10:16:47.428Z,57.92
2022-09-25T10:22:02.610Z,56.56
2022-09-25T10:27:31.223Z,58.13
2022-09-25T10:32:56.466Z,60.11
2022-09-25T10:38:08.565Z,60.36
2022-09-25T10:43:28.363Z,60.49
2022-09-25T10:49:21.225Z,61.10
2022-09-25T10:54:45.158Z,60.81
2022-09-25T10:59:55.471Z,56.14
2022-09-25T11:05:09.559Z,56.07
2022-09-25T11:10:26.270Z,48.29
2022-09-25T11:15:35.242Z,54.99
2022-09-25T11:20:45.813Z,60.91
2022-09-25T11:25:55.483Z,61.61
2022-09-25T11:31:14.250Z,61.49
2022-09-25T11:36:26.842Z,60.24
2022-09-25T11:41:48.329Z,59.13
2022-09-25T11:47:05.499Z,56.59
2022-09-25T11:52:47.232Z,51.12
2022-09-25T11:58:07.930Z,44.02
2022-09-25T12:03:30.051Z,41.66
2022-09-25T12:09:08.786Z,43.53
2022-09-25T12:14:25.847Z,49.77
2022-09-25T12:19:50.144Z,52.36
2022-09-25T12:25:20.180Z,49.42
2022-09-25T12:30:39.472Z,46.99
2022-09-25T12:41:43.504Z,53.24
2022-09-25T12:47:16.122Z,51.80
2022-09-25T12:52:35.308Z,52.41
2022-09-25T12:58:18.755Z,52.93
2022-09-25T13:03:33.226Z,55.09
2022-09-25T13:08:57.528Z,50.47
2022-09-25T13:14:04.083Z,52.25
2022-09-25T13:19:25.326Z,49.13
2022-09-25T13:24:28.435Z,41.58
2022-09-25T13:29:36.561Z,43.09
2022-09-25T13:34:41.667Z,48.47
2022-09-25T13:40:06.476Z,49.58
2022-09-25T13:45:33.502Z,50.79
2022-09-25T13:50:39.926Z,49.28
2022-09-25T13:55:43.662Z,48.27
2022-09-25T14:00:57.620Z,48.22
2022-09-25T14:06:01.801Z,47.00
2022-09-25T14:11:09.215Z,48.04
2022-09-25T14:16:29.694Z,48.84
2022-09-25T14:21:34.535Z,47.83
2022-09-25T14:26:44.185Z,46.67
2022-09-25T14:32:04.911Z,46.42
2022-09-25T14:42:39.567Z,47.84
2022-09-25T14:47:47.423Z,46.29
2022-09-25T14:52:55.483Z,47.79
2022-09-25T14:57:58.693Z,45.17
2022-09-25T15:03:03.674Z,43.17
2022-09-25T15:08:21.433Z,41.93
2022-09-25T15:13:24.160Z,42.63
2022-09-25T15:18:30.609Z,44.61
2022-09-25T15:23:35.348Z,45.56
2022-09-25T15:28:39.983Z,45.59
2022-09-25T15:33:44.413Z,43.36
2022-09-25T15:38:54.024Z,41.97
2022-09-25T15:44:14.576Z,41.10
2022-09-25T15:49:22.325Z,41.54
2022-09-25T15:54:44.450Z,44.55
2022-09-25T16:00:07.160Z,46.70
2022-09-25T16:05:12.274Z,48.30
2022-09-25T16:10:33.494Z,49.43
2022-09-25T16:15:54.633Z,48.27
2022-09-25T16:21:13.560Z,48.43
2022-09-25T16:26:22.097Z,51.32
2022-09-25T16:31:25.976Z,51.33
2022-09-25T16:36:39.994Z,52.04
2022-09-25T16:41:48.470Z,54.54
2022-09-25T16:47:21.513Z,56.35
2022-09-25T16:52:28.922Z,56.21
2022-09-25T16:57:33.258Z,55.09
2022-09-25T17:02:41.807Z,54.27
2022-09-25T17:07:48.521Z,55.78
2022-09-25T17:12:54.137Z,59.79
2022-09-25T17:17:57.053Z,60.27
2022-09-25T17:28:39.239Z,57.25
2022-09-25T17:33:42.292Z,57.83
2022-09-25T17:38:46.658Z,57.06
2022-09-25T17:43:50.783Z,58.22
2022-09-25T17:48:54.902Z,57.97
2022-09-25T17:53:59.525Z,58.15
2022-09-25T17:59:05.265Z,59.92
2022-09-25T18:04:19.538Z,61.17
2022-09-25T18:09:22.355Z,60.14
2022-09-25T18:14:26.570Z,60.38
2022-09-25T18:19:46.723Z,60.70
2022-09-25T18:24:52.762Z,61.49
2022-09-25T18:29:57.807Z,61.11
2022-09-25T18:35:02.464Z,61.22
2022-09-25T18:40:06.015Z,61.47
2022-09-25T18:45:12.963Z,61.63
2022-09-25T18:50:20.619Z,61.94
2022-09-25T18:55:23.920Z,62.48
2022-09-25T19:00:28.262Z,62.49
2022-09-25T19:05:31.456Z,63.06
2022-09-25T19:10:35.526Z,63.02
2022-09-25T19:15:43.309Z,64.16
2022-09-25T19:20:51.748Z,65.75
2022-09-25T19:25:56.421Z,66.20
2022-09-25T19:31:03.690Z,65.64
2022-09-25T19:36:08.939Z,65.13
2022-09-25T19:41:14.650Z,65.33
2022-09-25T19:46:20.336Z,66.42
2022-09-25T19:51:24.584Z,66.39
2022-09-25T19:56:27.514Z,66.54
2022-09-25T20:01:31.736Z,66.48
2022-09-25T20:06:36.364Z,66.38
2022-09-25T20:11:39.307Z,66.50
2022-09-25T20:16:43.607Z,67.19
2022-09-25T20:21:46.430Z,67.23
2022-09-25T20:26:49.268Z,67.95
2022-09-25T20:31:53.810Z,68.69
2022-09-25T20:36:56.917Z,68.66
2022-09-25T20:41:59.839Z,68.33
2022-09-25T20:47:03.992Z,68.38
2022-09-25T20:52:06.836Z,68.12
2022-09-25T20:57:09.876Z,69.01
2022-09-25T21:02:14.187Z,70.04
2022-09-25T21:07:17.487Z,69.48
2022-09-25T21:12:21.379Z,69.27
2022-09-25T21:17:25.789Z,69.32
2022-09-25T21:22:28.590Z,69.62
2022-09-25T21:27:31.281Z,69.95
2022-09-25T21:32:35.456Z,70.79
2022-09-25T21:37:38.973Z,71.34
2022-09-25T21:42:41.745Z,70.56
2022-09-25T21:47:45.706Z,70.56
2022-09-25T21:52:48.462Z,70.96
2022-09-25T21:57:51.282Z,71.40
2022-09-25T22:02:55.504Z,71.38
2022-09-25T22:07:58.374Z,71.04
2022-09-25T22:13:01.582Z,71.54
2022-09-25T22:18:05.805Z,72.10
2022-09-25T22:23:08.633Z,72.14
2022-09-25T22:28:11.446Z,73.13
2022-09-25T22:33:15.606Z,72.87
2022-09-25T22:38:18.357Z,72.12
2022-09-25T22:43:20.940Z,71.14
2022-09-25T22:48:25.185Z,70.38
2022-09-25T22:53:30.440Z,70.54
2022-09-25T22:58:33.180Z,71.14
2022-09-25T23:03:37.131Z,71.05
2022-09-25T23:08:39.924Z,70.72
2022-09-25T23:13:42.569Z,70.71
2022-09-25T23:18:46.702Z,70.92
2022-09-25T23:23:49.514Z,70.92
2022-09-25T23:28:52.501Z,70.69
2022-09-25T23:33:57.247Z,71.07
2022-09-25T23:39:01.767Z,71.57
2022-09-25T23:44:06.699Z,71.13
2022-09-25T23:49:11.969Z,71.25
2022-09-25T23:54:15.352Z,71.00
2022-09-25T23:59:18.300Z,70.77
